Time;durP1;ratioP1;P1;durP2;ratioP2;P2;SDS_P1;SDS_P2;PMS_P1;PMS_P2;Temp;Humidity;BMP_temperature;BMP_pressure;BME280_temperature;BME280_humidity;BME280_pressure;Samples;Min_cycle;Max_cycle;Signal;HPM_P1;HPM_P2
2021/07/18 00:01:46;;;;;;;2.05;1.25;;;24.40;62.40;;;;;;6216252;28;20343;-69
2021/07/18 00:04:47;;;;;;;1.55;1.20;;;24.40;62.40;;;;;;6206480;28;20113;-70
2021/07/18 00:07:47;;;;;;;1.30;1.20;;;24.40;62.40;;;;;;6192011;28;20072;-70
2021/07/18 00:10:49;;;;;;;1.20;1.10;;;24.40;62.40;;;;;;6206121;28;20053;-70
2021/07/18 00:13:49;;;;;;;1.10;1.00;;;24.40;62.40;;;;;;6216234;28;20112;-70
2021/07/18 00:16:50;;;;;;;1.50;1.30;;;24.40;62.40;;;;;;6215656;28;20341;-70
2021/07/18 00:19:50;;;;;;;1.40;1.20;;;24.40;62.40;;;;;;6211547;28;20029;-70
2021/07/18 00:22:51;;;;;;;2.08;1.50;;;24.40;62.40;;;;;;6215957;28;20354;-70
2021/07/18 00:25:51;;;;;;;1.00;0.90;;;24.40;62.30;;;;;;6195206;28;20030;-69
2021/07/18 00:28:53;;;;;;;1.42;1.23;;;24.40;62.40;;;;;;6191568;28;20085;-69
2021/07/18 00:31:53;;;;;;;1.52;1.17;;;24.40;62.40;;;;;;6212193;28;20361;-70
2021/07/18 00:34:54;;;;;;;2.17;1.20;;;24.40;62.40;;;;;;6215720;28;20034;-69
2021/07/18 00:37:54;;;;;;;1.90;1.40;;;24.40;62.40;;;;;;6215744;28;20493;-70
2021/07/18 00:40:55;;;;;;;1.67;1.50;;;24.40;62.40;;;;;;6215458;28;20034;-69
2021/07/18 00:43:55;;;;;;;1.30;1.20;;;24.40;62.40;;;;;;6215752;28;20038;-70
2021/07/18 00:46:56;;;;;;;1.10;0.90;;;24.40;62.40;;;;;;6215730;28;20109;-70
2021/07/18 00:49:57;;;;;;;1.23;1.13;;;24.40;62.40;;;;;;6215649;28;20054;-69
2021/07/18 00:52:57;;;;;;;1.38;1.17;;;24.40;62.40;;;;;;6209020;28;20030;-69
2021/07/18 00:55:58;;;;;;;1.30;1.20;;;24.40;62.30;;;;;;6185336;28;20431;-70
2021/07/18 00:58:59;;;;;;;0.82;0.82;;;24.40;62.50;;;;;;6215164;28;20034;-70
2021/07/18 01:02:00;;;;;;;1.33;1.02;;;24.50;62.50;;;;;;6215245;28;20185;-70
2021/07/18 01:05:01;;;;;;;1.25;1.15;;;24.40;62.40;;;;;;6214885;28;20450;-70
2021/07/18 01:08:02;;;;;;;1.33;1.17;;;24.40;62.40;;;;;;6166872;28;20437;-69
2021/07/18 01:11:03;;;;;;;1.50;1.35;;;24.40;62.40;;;;;;6178503;28;20137;-70
2021/07/18 01:14:04;;;;;;;1.13;1.02;;;24.40;62.40;;;;;;6215077;28;20033;-70
2021/07/18 01:17:04;;;;;;;1.23;1.08;;;24.40;62.40;;;;;;6211682;28;20445;-69
2021/07/18 01:20:08;;;;;;;1.23;1.13;;;24.40;62.30;;;;;;6215210;28;20109;-70
2021/07/18 01:23:09;;;;;;;1.45;1.23;;;24.40;62.40;;;;;;6214753;28;20068;-69
2021/07/18 01:26:10;;;;;;;1.20;1.10;;;24.40;62.40;;;;;;6206975;28;20353;-70
2021/07/18 01:29:11;;;;;;;2.15;1.30;;;24.40;62.40;;;;;;6214774;28;20242;-70
2021/07/18 01:32:11;;;;;;;1.10;1.00;;;24.40;62.40;;;;;;6215988;28;20037;-70
2021/07/18 01:35:12;;;;;;;1.90;1.10;;;24.40;62.30;;;;;;6219668;28;20033;-70
2021/07/18 01:38:14;;;;;;;1.20;1.10;;;24.40;62.30;;;;;;6219406;28;20068;-70
2021/07/18 01:41:14;;;;;;;0.93;0.90;;;24.40;62.40;;;;;;6219638;28;20029;-69
2021/07/18 01:44:15;;;;;;;1.20;1.02;;;24.40;62.40;;;;;;6219743;28;20661;-70
2021/07/18 01:47:16;;;;;;;1.20;1.02;;;24.40;62.40;;;;;;6219692;28;20033;-70
2021/07/18 01:50:17;;;;;;;1.33;1.10;;;24.40;62.30;;;;;;6220454;28;20034;-70
2021/07/18 01:53:17;;;;;;;1.10;1.00;;;24.40;62.50;;;;;;6207737;28;20482;-70
2021/07/18 01:56:19;;;;;;;1.35;1.25;;;24.40;62.40;;;;;;6173931;28;20453;-69
2021/07/18 01:59:20;;;;;;;1.17;1.08;;;24.40;62.40;;;;;;6219350;28;20022;-69
2021/07/18 02:02:21;;;;;;;1.15;1.02;;;24.40;62.40;;;;;;6219745;28;20040;-69
2021/07/18 02:05:22;;;;;;;1.23;1.00;;;24.40;62.40;;;;;;6219218;28;20469;-70
2021/07/18 02:08:22;;;;;;;1.20;1.10;;;24.40;62.30;;;;;;6219049;28;20029;-70
2021/07/18 02:11:23;;;;;;;1.52;1.10;;;24.40;62.40;;;;;;6219168;28;20018;-70
2021/07/18 02:14:24;;;;;;;1.95;1.20;;;24.40;62.50;;;;;;6219129;28;20038;-69
2021/07/18 02:17:24;;;;;;;0.77;0.77;;;24.40;62.40;;;;;;6218527;28;20044;-69
2021/07/18 02:20:25;;;;;;;1.33;1.17;;;24.40;62.50;;;;;;6219456;28;20054;-70
2021/07/18 02:23:25;;;;;;;1.13;1.00;;;24.40;62.30;;;;;;6218692;28;20117;-70
2021/07/18 02:26:30;;;;;;;1.23;1.13;;;24.40;62.40;;;;;;6204288;28;20073;-70
2021/07/18 02:29:30;;;;;;;1.40;0.80;;;24.40;62.40;;;;;;6215113;28;20101;-69
2021/07/18 02:32:31;;;;;;;1.15;1.05;;;24.40;62.40;;;;;;6218322;28;20079;-70
2021/07/18 02:35:32;;;;;;;1.40;1.00;;;24.40;62.40;;;;;;6218143;28;20088;-70
2021/07/18 02:38:32;;;;;;;1.05;0.90;;;24.40;62.30;;;;;;6217851;28;20092;-69
2021/07/18 02:41:35;;;;;;;1.25;0.90;;;24.40;62.40;;;;;;6218379;28;20473;-69
2021/07/18 02:44:35;;;;;;;1.10;1.00;;;24.40;62.40;;;;;;6217195;28;20021;-69
2021/07/18 02:47:37;;;;;;;1.38;1.10;;;24.40;62.40;;;;;;6217267;28;20029;-70
2021/07/18 02:50:37;;;;;;;1.30;1.20;;;24.40;62.40;;;;;;6218119;28;20113;-70
2021/07/18 02:53:38;;;;;;;0.98;0.88;;;24.40;62.40;;;;;;6200473;28;20048;-69
2021/07/18 02:56:39;;;;;;;1.23;1.00;;;24.40;62.40;;;;;;6168926;28;20050;-70
2021/07/18 02:59:39;;;;;;;1.13;1.02;;;24.40;63.30;;;;;;6208617;28;20033;-69
2021/07/18 03:02:41;;;;;;;1.10;0.90;;;24.40;62.40;;;;;;6214708;28;20382;-70
2021/07/18 03:05:42;;;;;;;1.30;1.20;;;24.40;62.40;;;;;;6169045;28;20023;-70
2021/07/18 03:08:42;;;;;;;1.25;1.10;;;24.40;62.30;;;;;;6182236;28;20381;-70
2021/07/18 03:11:43;;;;;;;1.45;1.20;;;24.40;62.30;;;;;;6217278;28;20297;-70
2021/07/18 03:14:43;;;;;;;1.20;1.10;;;24.40;62.40;;;;;;6216955;28;20034;-70
2021/07/18 03:17:44;;;;;;;1.17;1.08;;;24.40;62.40;;;;;;6212320;28;20552;-70
2021/07/18 03:20:45;;;;;;;1.00;0.90;;;24.40;62.40;;;;;;6213982;28;20064;-69
2021/07/18 03:23:45;;;;;;;1.40;1.13;;;24.40;62.30;;;;;;6216393;28;20038;-70
2021/07/18 03:26:45;;;;;;;1.20;1.10;;;24.40;62.40;;;;;;6199597;28;20359;-69
2021/07/18 03:29:46;;;;;;;1.17;1.08;;;24.40;62.30;;;;;;6204498;28;20462;-70
2021/07/18 03:32:47;;;;;;;1.13;0.98;;;24.40;62.40;;;;;;6217163;28;20022;-69
2021/07/18 03:35:48;;;;;;;1.52;0.80;;;24.40;62.30;;;;;;6203400;28;20092;-69
2021/07/18 03:38:48;;;;;;;1.10;1.00;;;24.40;62.40;;;;;;6195513;28;20026;-69
2021/07/18 03:41:49;;;;;;;1.30;1.10;;;24.40;62.30;;;;;;6216663;28;20116;-70
2021/07/18 03:44:50;;;;;;;1.10;1.00;;;24.40;62.40;;;;;;6216377;28;20021;-69
2021/07/18 03:47:50;;;;;;;1.23;0.85;;;24.40;62.30;;;;;;6216293;28;20374;-70
2021/07/18 03:50:51;;;;;;;1.17;1.00;;;24.40;62.30;;;;;;6216267;28;20048;-69
2021/07/18 03:53:51;;;;;;;1.25;1.05;;;24.50;62.50;;;;;;6197784;28;20030;-69
2021/07/18 03:56:52;;;;;;;1.50;1.25;;;24.40;62.30;;;;;;6216321;28;20038;-69
2021/07/18 04:00:39;;;;;;;0.93;0.80;;;24.40;62.30;;;;;;6216352;28;20100;-70
2021/07/18 04:03:39;;;;;;;3.63;1.00;;;24.50;62.40;;;;;;6216386;28;20087;-71
2021/07/18 04:06:40;;;;;;;1.00;0.88;;;24.40;62.40;;;;;;6216282;28;20026;-71
2021/07/18 04:09:41;;;;;;;1.27;0.90;;;24.40;62.40;;;;;;6215851;28;20393;-71
2021/07/18 04:12:41;;;;;;;1.65;1.15;;;24.40;62.30;;;;;;6215992;28;20366;-71
2021/07/18 04:15:42;;;;;;;1.20;1.00;;;24.40;62.30;;;;;;6215801;28;20038;-71
2021/07/18 04:18:42;;;;;;;1.17;1.08;;;24.40;62.30;;;;;;6216319;28;20030;-72
2021/07/18 04:21:43;;;;;;;0.90;0.85;;;24.40;62.30;;;;;;6215860;28;20109;-72
2021/07/18 04:24:43;;;;;;;1.10;1.00;;;24.40;62.30;;;;;;6214351;28;20473;-72
2021/07/18 04:27:44;;;;;;;1.00;0.90;;;24.40;62.30;;;;;;6191287;28;20565;-72
2021/07/18 04:30:44;;;;;;;1.10;1.00;;;24.40;62.30;;;;;;6202409;28;20420;-72
2021/07/18 04:33:45;;;;;;;0.98;0.90;;;24.40;62.40;;;;;;6215442;28;20080;-72
2021/07/18 04:36:46;;;;;;;0.90;0.90;;;24.40;62.40;;;;;;6214992;28;20113;-72
2021/07/18 04:39:46;;;;;;;1.13;0.98;;;24.40;62.30;;;;;;6215205;28;20074;-72
2021/07/18 04:42:47;;;;;;;1.05;0.95;;;24.40;62.30;;;;;;6215469;28;20323;-72
2021/07/18 04:45:47;;;;;;;1.00;0.95;;;24.40;62.30;;;;;;6214886;28;20060;-69
2021/07/18 04:48:48;;;;;;;1.50;1.10;;;24.40;62.40;;;;;;6203969;28;20085;-69
2021/07/18 04:51:49;;;;;;;1.00;0.90;;;24.40;62.40;;;;;;6208086;28;20033;-70
2021/07/18 04:54:49;;;;;;;2.75;0.90;;;24.40;62.30;;;;;;6179239;28;20050;-70
2021/07/18 04:57:50;;;;;;;1.50;0.93;;;24.40;62.30;;;;;;6214854;28;20057;-69
2021/07/18 05:00:51;;;;;;;1.20;1.10;;;24.40;62.30;;;;;;6212550;28;20536;-70
2021/07/18 05:03:51;;;;;;;1.02;0.93;;;24.40;62.30;;;;;;6190805;28;20077;-69
2021/07/18 05:06:51;;;;;;;1.00;0.90;;;24.40;62.30;;;;;;6204594;28;20057;-69
2021/07/18 05:09:52;;;;;;;0.68;0.68;;;24.40;62.40;;;;;;6214642;28;20342;-70
2021/07/18 05:12:56;;;;;;;0.88;0.68;;;24.40;62.40;;;;;;6212323;28;20030;-69
2021/07/18 05:15:56;;;;;;;0.93;0.90;;;24.40;62.40;;;;;;6214523;28;20033;-70
2021/07/18 05:18:57;;;;;;;1.00;0.90;;;24.50;62.40;;;;;;6214862;28;20037;-70
2021/07/18 05:21:58;;;;;;;1.10;1.00;;;24.40;62.30;;;;;;6229670;28;20026;-70
2021/07/18 05:24:58;;;;;;;1.35;1.00;;;24.40;62.30;;;;;;6211782;28;20046;-69
2021/07/18 05:27:59;;;;;;;1.00;0.90;;;24.40;62.40;;;;;;6207584;28;20046;-69
2021/07/18 05:31:00;;;;;;;0.77;0.77;;;24.40;62.40;;;;;;6214487;28;20037;-68
2021/07/18 05:34:00;;;;;;;1.00;0.90;;;24.40;62.30;;;;;;6214660;28;20033;-70
2021/07/18 05:37:01;;;;;;;1.15;1.05;;;24.40;63.20;;;;;;6214390;28;20129;-69
2021/07/18 05:40:03;;;;;;;0.80;0.80;;;24.40;62.40;;;;;;6214775;28;20026;-70
2021/07/18 05:43:04;;;;;;;1.50;1.40;;;24.40;62.30;;;;;;6207051;28;20030;-70
2021/07/18 05:46:05;;;;;;;0.90;0.90;;;24.40;62.30;;;;;;6190278;28;20053;-70
2021/07/18 05:49:05;;;;;;;1.10;1.00;;;24.40;62.30;;;;;;6213382;28;20060;-70
2021/07/18 05:52:06;;;;;;;1.52;1.02;;;24.40;62.30;;;;;;6215587;28;20029;-69
2021/07/18 05:55:08;;;;;;;0.80;0.80;;;24.40;62.30;;;;;;6173125;28;20538;-69
2021/07/18 05:58:09;;;;;;;1.02;0.93;;;24.40;62.30;;;;;;6194256;28;20285;-69
2021/07/18 06:01:09;;;;;;;0.80;0.80;;;24.40;62.40;;;;;;6213832;28;20034;-69
2021/07/18 06:04:10;;;;;;;0.80;0.80;;;24.40;62.30;;;;;;6214627;28;20487;-69
2021/07/18 06:07:10;;;;;;;1.00;0.90;;;24.40;62.30;;;;;;6214314;28;20053;-69
2021/07/18 06:10:12;;;;;;;1.00;0.90;;;24.40;62.30;;;;;;6214433;28;20072;-69
2021/07/18 06:13:13;;;;;;;1.10;0.85;;;24.40;62.30;;;;;;6214463;28;20030;-70
2021/07/18 06:16:13;;;;;;;1.00;0.90;;;24.40;62.30;;;;;;6214154;28;20038;-69
2021/07/18 06:19:14;;;;;;;1.08;0.98;;;24.40;62.30;;;;;;6215734;28;20045;-69
2021/07/18 06:22:14;;;;;;;0.80;0.80;;;24.40;62.30;;;;;;6217612;28;20485;-69
2021/07/18 06:25:15;;;;;;;0.80;0.80;;;24.40;62.40;;;;;;6213258;28;20027;-70
2021/07/18 06:28:15;;;;;;;1.42;0.90;;;24.40;62.30;;;;;;6204528;28;20088;-70
2021/07/18 06:31:16;;;;;;;0.90;0.80;;;24.40;62.30;;;;;;6218673;28;20030;-69
2021/07/18 06:34:16;;;;;;;0.85;0.82;;;24.40;62.30;;;;;;6218404;28;20543;-69
2021/07/18 06:37:17;;;;;;;0.93;0.80;;;24.40;62.30;;;;;;6218034;28;20421;-69
2021/07/18 06:40:17;;;;;;;1.52;0.95;;;24.40;62.30;;;;;;6217860;28;20087;-69
2021/07/18 06:43:18;;;;;;;1.02;0.93;;;24.40;62.30;;;;;;6217991;28;20117;-70
2021/07/18 06:46:18;;;;;;;0.75;0.73;;;24.40;62.30;;;;;;6217860;28;20153;-70
2021/07/18 06:49:19;;;;;;;0.85;0.82;;;24.40;62.30;;;;;;6218009;28;20029;-70
2021/07/18 06:52:20;;;;;;;1.00;0.90;;;24.40;62.30;;;;;;6218057;28;20039;-69
2021/07/18 06:55:20;;;;;;;1.00;0.82;;;24.40;62.30;;;;;;6172582;28;20130;-70
2021/07/18 06:58:21;;;;;;;1.00;0.80;;;24.40;62.30;;;;;;6192637;28;20026;-70
2021/07/18 07:01:21;;;;;;;0.95;0.85;;;24.40;62.30;;;;;;6217580;28;20034;-69
2021/07/18 07:04:22;;;;;;;0.80;0.80;;;24.40;62.30;;;;;;6201549;28;20034;-69
2021/07/18 07:07:22;;;;;;;1.00;0.90;;;24.40;62.30;;;;;;6193283;28;20038;-70
2021/07/18 07:10:23;;;;;;;1.05;0.82;;;24.40;62.30;;;;;;6213432;28;20481;-70
2021/07/18 07:13:24;;;;;;;0.95;0.88;;;24.50;62.40;;;;;;6217169;28;20034;-70
2021/07/18 07:16:24;;;;;;;0.82;0.82;;;24.40;62.30;;;;;;6217249;28;20678;-69
2021/07/18 07:19:25;;;;;;;1.05;0.98;;;24.40;62.30;;;;;;6216853;28;20393;-69
2021/07/18 07:22:25;;;;;;;0.90;0.80;;;24.40;62.30;;;;;;6217102;28;20030;-70
2021/07/18 07:25:26;;;;;;;1.23;0.90;;;24.40;62.30;;;;;;6210832;28;20034;-69
2021/07/18 07:28:27;;;;;;;0.88;0.88;;;24.40;62.40;;;;;;6194106;28;20122;-70
2021/07/18 07:31:28;;;;;;;1.35;0.93;;;24.50;62.40;;;;;;6216453;28;20049;-70
2021/07/18 07:34:28;;;;;;;2.25;0.80;;;24.40;62.30;;;;;;6216716;28;20021;-69
2021/07/18 07:37:29;;;;;;;1.00;0.90;;;24.40;62.40;;;;;;6216612;28;20034;-69
2021/07/18 07:40:29;;;;;;;0.95;0.85;;;24.40;62.30;;;;;;6216952;28;20036;-69
2021/07/18 07:43:29;;;;;;;0.85;0.80;;;24.40;62.30;;;;;;6216653;28;20593;-69
2021/07/18 07:46:30;;;;;;;0.80;0.73;;;24.40;62.30;;;;;;6216733;28;20332;-71
2021/07/18 07:49:30;;;;;;;1.00;0.90;;;24.40;62.30;;;;;;6216256;28;20029;-69
2021/07/18 07:52:32;;;;;;;0.85;0.80;;;24.40;62.30;;;;;;6216317;28;20392;-70
2021/07/18 07:55:33;;;;;;;1.65;0.88;;;24.40;62.30;;;;;;6198201;28;20397;-69
2021/07/18 07:58:34;;;;;;;1.00;0.90;;;24.40;62.30;;;;;;6216685;28;20036;-70
2021/07/18 08:01:34;;;;;;;0.98;0.82;;;24.40;62.30;;;;;;6215833;28;20038;-69
2021/07/18 08:04:35;;;;;;;1.25;1.02;;;24.40;62.30;;;;;;6215506;28;20111;-69
2021/07/18 08:07:36;;;;;;;0.80;0.80;;;24.40;62.30;;;;;;6215903;28;20053;-70
2021/07/18 08:10:38;;;;;;;0.82;0.80;;;24.40;62.30;;;;;;6215866;28;20104;-70
2021/07/18 08:13:38;;;;;;;1.33;0.90;;;24.40;62.30;;;;;;6216169;28;20022;-70
2021/07/18 08:16:39;;;;;;;0.70;0.70;;;24.40;62.30;;;;;;6215689;28;20026;-70
2021/07/18 08:19:41;;;;;;;0.70;0.70;;;24.40;62.30;;;;;;6215749;28;20377;-70
2021/07/18 08:22:42;;;;;;;0.80;0.73;;;24.40;62.30;;;;;;6216176;28;20056;-70
2021/07/18 08:25:42;;;;;;;0.90;0.90;;;24.50;62.40;;;;;;6206171;28;20113;-70
2021/07/18 08:28:43;;;;;;;0.90;0.85;;;24.40;62.30;;;;;;6193565;28;20050;-70
2021/07/18 08:31:44;;;;;;;1.00;0.90;;;24.40;62.30;;;;;;6206777;28;20100;-70
2021/07/18 08:34:44;;;;;;;0.80;0.80;;;24.40;62.30;;;;;;6215547;28;20034;-70
2021/07/18 08:37:45;;;;;;;0.73;0.73;;;24.40;62.30;;;;;;6214668;28;20034;-70
2021/07/18 08:40:48;;;;;;;0.70;0.70;;;24.40;62.30;;;;;;6215068;28;20084;-70
2021/07/18 08:43:50;;;;;;;0.70;0.70;;;24.50;62.40;;;;;;6199727;28;20113;-70
2021/07/18 08:46:51;;;;;;;1.00;0.90;;;24.40;62.30;;;;;;6206599;28;20400;-70
2021/07/18 08:49:52;;;;;;;0.70;0.70;;;24.40;62.30;;;;;;6212100;28;20022;-70
2021/07/18 08:52:55;;;;;;;0.98;0.88;;;24.40;62.30;;;;;;6209221;28;20115;-70
2021/07/18 08:55:55;;;;;;;1.00;0.80;;;24.50;62.40;;;;;;6180285;28;20053;-70
2021/07/18 08:58:56;;;;;;;0.80;0.70;;;24.40;62.30;;;;;;6215240;28;20022;-70
2021/07/18 09:01:57;;;;;;;0.90;0.75;;;24.40;62.30;;;;;;6215196;28;20589;-70
2021/07/18 09:04:57;;;;;;;1.20;0.90;;;24.40;62.30;;;;;;6214383;28;20026;-70
2021/07/18 09:07:57;;;;;;;0.98;0.90;;;24.40;62.30;;;;;;6215027;28;20057;-70
2021/07/18 09:10:58;;;;;;;0.80;0.75;;;24.40;62.30;;;;;;6214931;28;20033;-70
2021/07/18 09:14:05;;;;;;;1.02;0.82;;;24.40;62.30;;;;;;6215096;28;20473;-70
2021/07/18 09:17:11;;;;;;;0.63;0.60;;;24.40;62.30;;;;;;6214298;28;20030;-70
2021/07/18 09:20:16;;;;;;;0.50;0.50;;;24.40;62.30;;;;;;6215099;28;20022;-70
2021/07/18 09:23:19;;;;;;;1.20;1.00;;;24.50;62.40;;;;;;6214769;28;20033;-70
2021/07/18 09:26:22;;;;;;;0.70;0.70;;;24.40;62.30;;;;;;6206387;28;20548;-70
2021/07/18 09:29:25;;;;;;;0.93;0.82;;;24.40;62.30;;;;;;6214393;28;20082;-70
2021/07/18 09:32:28;;;;;;;0.70;0.70;;;24.40;62.30;;;;;;6186381;28;20034;-70
2021/07/18 09:35:29;;;;;;;0.82;0.80;;;24.40;62.30;;;;;;6184734;28;20537;-70
2021/07/18 09:38:29;;;;;;;0.70;0.65;;;24.40;62.30;;;;;;6188236;28;20106;-70
2021/07/18 09:41:37;;;;;;;0.60;0.60;;;24.40;62.30;;;;;;6193420;28;20099;-70
2021/07/18 09:44:45;;;;;;;0.60;0.60;;;24.40;62.30;;;;;;6197072;28;20023;-70
2021/07/18 09:47:58;;;;;;;1.00;0.90;;;24.40;62.30;;;;;;6197839;28;20121;-70
2021/07/18 09:51:10;;;;;;;0.63;0.63;;;24.50;62.40;;;;;;6184814;28;20030;-70
2021/07/18 09:54:12;;;;;;;0.85;0.85;;;24.50;62.40;;;;;;6206092;28;20377;-70
2021/07/18 09:57:34;;;;;;;0.70;0.70;;;24.40;62.30;;;;;;6197713;28;20073;-70
2021/07/18 10:00:40;;;;;;;0.60;0.60;;;24.50;62.40;;;;;;6196822;28;20440;-70
2021/07/18 10:03:49;;;;;;;0.60;0.60;;;24.50;62.40;;;;;;6215304;28;20516;-70
2021/07/18 10:07:05;;;;;;;0.70;0.70;;;24.40;62.30;;;;;;6189560;28;20084;-70
2021/07/18 10:10:06;;;;;;;0.60;0.60;;;24.50;62.40;;;;;;6208363;28;20480;-70
2021/07/18 10:13:08;;;;;;;0.70;0.70;;;24.50;62.40;;;;;;6206096;28;20184;-70
2021/07/18 10:16:10;;;;;;;1.00;0.90;;;24.50;63.30;;;;;;6196957;28;20065;-70
2021/07/18 10:19:11;;;;;;;0.80;0.70;;;24.40;62.30;;;;;;6213206;28;20030;-71
2021/07/18 10:22:13;;;;;;;0.73;0.70;;;24.40;62.30;;;;;;6209547;28;20042;-70
2021/07/18 10:25:15;;;;;;;0.68;0.68;;;24.40;62.30;;;;;;6204055;28;20022;-70
2021/07/18 10:28:17;;;;;;;0.60;0.60;;;24.40;62.30;;;;;;6204310;28;20046;-70
2021/07/18 10:31:22;;;;;;;0.70;0.70;;;24.50;62.40;;;;;;6197983;28;20038;-70
2021/07/18 10:34:34;;;;;;;0.80;0.60;;;24.40;62.30;;;;;;6209021;28;20029;-71
2021/07/18 10:37:40;;;;;;;0.70;0.60;;;24.50;62.40;;;;;;6192086;28;20034;-70
2021/07/18 10:40:49;;;;;;;0.50;0.50;;;24.50;62.40;;;;;;6210813;28;20026;-70
2021/07/18 10:43:50;;;;;;;0.50;0.50;;;24.50;62.40;;;;;;6216092;28;20022;-70
2021/07/18 10:46:53;;;;;;;0.85;0.85;;;24.40;62.30;;;;;;6210510;28;20311;-70
2021/07/18 10:49:57;;;;;;;0.70;0.70;;;24.40;62.30;;;;;;6225134;28;20038;-70
2021/07/18 10:53:18;;;;;;;0.60;0.60;;;24.40;62.30;;;;;;6192192;28;20019;-70
2021/07/18 10:56:37;;;;;;;0.60;0.60;;;24.40;62.30;;;;;;6198316;28;20034;-70
2021/07/18 10:59:43;;;;;;;0.80;0.80;;;24.40;62.30;;;;;;6200593;28;20239;-70
2021/07/18 11:02:44;;;;;;;0.70;0.70;;;24.40;62.30;;;;;;6173503;28;20033;-70
2021/07/18 11:05:47;;;;;;;1.02;0.70;;;24.50;62.40;;;;;;6202384;28;20109;-70
2021/07/18 11:09:05;;;;;;;0.70;0.70;;;24.50;62.40;;;;;;6207963;28;20069;-69
2021/07/18 11:12:21;;;;;;;1.10;0.80;;;24.50;62.40;;;;;;6206720;28;20027;-69
2021/07/18 11:15:35;;;;;;;0.60;0.60;;;24.50;62.30;;;;;;6208858;28;20397;-69
2021/07/18 11:18:37;;;;;;;0.70;0.60;;;24.50;62.20;;;;;;6174620;28;20480;-69
2021/07/18 11:21:47;;;;;;;1.00;0.60;;;24.60;62.40;;;;;;6205575;28;20040;-70
2021/07/18 11:24:57;;;;;;;0.70;0.70;;;24.60;62.40;;;;;;6190988;28;20474;-69
2021/07/18 11:27:58;;;;;;;0.63;0.63;;;24.60;62.40;;;;;;6195357;28;20050;-70
2021/07/18 11:31:12;;;;;;;0.60;0.60;;;24.60;62.30;;;;;;6212477;28;20103;-70
2021/07/18 11:34:15;;;;;;;1.00;0.90;;;24.60;62.40;;;;;;6196916;28;20036;-69
2021/07/18 11:37:16;;;;;;;0.57;0.57;;;24.60;62.50;;;;;;6212775;28;20676;-69
2021/07/18 11:40:16;;;;;;;0.60;0.60;;;24.60;62.60;;;;;;6212627;28;20041;-69
2021/07/18 11:43:17;;;;;;;0.70;0.70;;;24.60;62.50;;;;;;6195349;28;20386;-69
2021/07/18 11:46:23;;;;;;;0.98;0.70;;;24.60;62.60;;;;;;6204878;28;20053;-70
2021/07/18 11:49:29;;;;;;;1.25;0.60;;;24.50;62.40;;;;;;6200407;28;20388;-69
2021/07/18 11:52:30;;;;;;;0.60;0.60;;;24.50;62.50;;;;;;6201829;28;20042;-70
2021/07/18 11:55:31;;;;;;;0.60;0.60;;;24.50;62.50;;;;;;6203557;28;20048;-69
2021/07/18 11:58:32;;;;;;;0.60;0.60;;;24.50;62.40;;;;;;6195007;28;20022;-69
2021/07/18 12:01:34;;;;;;;0.80;0.63;;;24.50;62.50;;;;;;6197242;28;20108;-69
2021/07/18 12:04:35;;;;;;;1.92;0.60;;;24.50;62.50;;;;;;6175834;28;20053;-69
2021/07/18 12:07:36;;;;;;;1.17;0.60;;;24.50;62.50;;;;;;6203438;28;20029;-69
2021/07/18 12:10:37;;;;;;;1.25;0.73;;;24.50;62.50;;;;;;6216915;28;20044;-70
2021/07/18 12:13:38;;;;;;;0.85;0.70;;;24.50;62.50;;;;;;6194538;28;20108;-69
2021/07/18 12:16:40;;;;;;;0.88;0.57;;;24.50;62.50;;;;;;6207868;28;20108;-69
2021/07/18 12:19:41;;;;;;;0.93;0.70;;;24.50;62.50;;;;;;6192661;28;20026;-70
2021/07/18 12:22:41;;;;;;;0.60;0.60;;;24.50;62.50;;;;;;6203506;28;20527;-70
2021/07/18 12:25:42;;;;;;;0.70;0.70;;;24.50;63.30;;;;;;6194185;28;20353;-69
2021/07/18 12:28:42;;;;;;;0.70;0.68;;;24.50;62.50;;;;;;6191147;28;20378;-70
2021/07/18 12:31:46;;;;;;;0.68;0.50;;;24.50;62.50;;;;;;6207654;28;20067;-69
2021/07/18 12:34:50;;;;;;;0.60;0.57;;;24.50;62.50;;;;;;6208717;28;20050;-69
2021/07/18 12:37:50;;;;;;;0.75;0.70;;;24.50;62.50;;;;;;6203452;28;20054;-69
2021/07/18 12:40:51;;;;;;;0.73;0.65;;;24.50;62.50;;;;;;6199240;28;20072;-70
2021/07/18 12:43:51;;;;;;;0.73;0.73;;;24.50;62.50;;;;;;6213194;28;20452;-70
2021/07/18 12:47:18;;;;;;;0.63;0.60;;;24.50;62.50;;;;;;6213625;28;20025;-70
2021/07/18 12:50:33;;;;;;;0.63;0.63;;;24.50;62.50;;;;;;6172223;28;20500;-69
2021/07/18 12:53:33;;;;;;;0.65;0.65;;;24.50;62.50;;;;;;6200639;28;20647;-69
2021/07/18 12:56:36;;;;;;;0.55;0.55;;;24.50;62.50;;;;;;6202083;28;20247;-69
2021/07/18 12:59:37;;;;;;;0.88;0.80;;;24.50;62.40;;;;;;6213072;28;20501;-69
2021/07/18 13:02:37;;;;;;;0.60;0.60;;;24.50;62.50;;;;;;6205707;28;20049;-69
2021/07/18 13:05:39;;;;;;;0.70;0.70;;;24.50;62.40;;;;;;6184818;28;20114;-69
2021/07/18 13:08:43;;;;;;;0.75;0.50;;;24.50;62.50;;;;;;6171918;28;20035;-70
2021/07/18 13:11:45;;;;;;;0.60;0.55;;;24.50;62.50;;;;;;6181351;28;20069;-69
2021/07/18 13:14:46;;;;;;;0.52;0.50;;;24.50;62.50;;;;;;6186497;28;20124;-69
2021/07/18 13:17:50;;;;;;;0.75;0.63;;;24.50;62.50;;;;;;6204361;28;20034;-69
2021/07/18 13:20:50;;;;;;;0.80;0.80;;;24.50;62.40;;;;;;6192349;28;20057;-69
2021/07/18 13:23:51;;;;;;;0.57;0.57;;;24.50;62.50;;;;;;6206866;28;20220;-69
2021/07/18 13:26:51;;;;;;;0.68;0.68;;;24.50;62.50;;;;;;6188796;28;20038;-69
2021/07/18 13:29:54;;;;;;;0.68;0.60;;;24.50;62.50;;;;;;6200435;28;20057;-69
2021/07/18 13:33:01;;;;;;;0.65;0.57;;;24.50;62.50;;;;;;6217307;28;20088;-69
2021/07/18 13:36:06;;;;;;;0.55;0.52;;;24.50;62.50;;;;;;6232548;28;20364;-70
2021/07/18 13:39:16;;;;;;;0.50;0.50;;;24.50;62.40;;;;;;6210636;28;20484;-70
2021/07/18 13:42:16;;;;;;;0.43;0.43;;;24.50;62.40;;;;;;6193541;28;20030;-70
2021/07/18 13:45:17;;;;;;;0.80;0.47;;;24.50;62.40;;;;;;6204194;28;20377;-69
2021/07/18 13:48:32;;;;;;;0.98;0.50;;;24.50;62.40;;;;;;6208869;28;20026;-69
2021/07/18 13:51:32;;;;;;;0.40;0.40;;;24.50;62.50;;;;;;6215808;28;20022;-69
2021/07/18 13:54:33;;;;;;;0.50;0.50;;;24.50;62.40;;;;;;6185411;28;20461;-69
2021/07/18 13:57:33;;;;;;;0.60;0.60;;;24.50;62.50;;;;;;6185072;28;20092;-70
2021/07/18 14:00:34;;;;;;;0.60;0.60;;;24.50;62.40;;;;;;6217069;28;20029;-69
2021/07/18 14:03:34;;;;;;;0.60;0.60;;;24.50;62.50;;;;;;6216617;28;20330;-69
2021/07/18 14:06:35;;;;;;;0.93;0.70;;;24.50;63.40;;;;;;6171492;28;20027;-69
2021/07/18 14:09:36;;;;;;;3.13;0.60;;;24.50;62.50;;;;;;6204421;28;20027;-69
2021/07/18 14:12:38;;;;;;;0.57;0.57;;;24.50;62.50;;;;;;6182823;28;20270;-69
2021/07/18 14:15:39;;;;;;;0.43;0.43;;;24.50;62.50;;;;;;6211231;28;20041;-69
2021/07/18 14:18:40;;;;;;;0.60;0.60;;;24.50;62.40;;;;;;6215166;28;20396;-69
2021/07/18 14:21:41;;;;;;;0.40;0.40;;;24.50;62.50;;;;;;6195773;28;20038;-69
2021/07/18 14:24:41;;;;;;;0.50;0.50;;;24.50;62.50;;;;;;6209993;28;20038;-69
2021/07/18 14:27:43;;;;;;;0.80;0.80;;;24.50;62.50;;;;;;6196190;28;20418;-69
2021/07/18 14:30:44;;;;;;;0.70;0.60;;;24.50;62.50;;;;;;6196580;28;20034;-69
2021/07/18 14:33:45;;;;;;;0.68;0.60;;;24.50;62.50;;;;;;6194281;28;20030;-70
2021/07/18 14:36:45;;;;;;;0.50;0.50;;;24.50;62.50;;;;;;6191408;28;20030;-69
2021/07/18 14:39:46;;;;;;;0.57;0.50;;;24.50;62.50;;;;;;6197108;28;20504;-69
2021/07/18 14:42:47;;;;;;;0.85;0.65;;;24.50;62.50;;;;;;6204723;28;20033;-69
2021/07/18 14:45:48;;;;;;;0.52;0.50;;;24.50;62.50;;;;;;6205834;28;20886;-69
2021/07/18 14:48:49;;;;;;;0.68;0.55;;;24.50;62.50;;;;;;6202396;28;20457;-70
2021/07/18 14:51:49;;;;;;;0.50;0.50;;;24.50;62.50;;;;;;6198313;28;20670;-69
2021/07/18 14:54:50;;;;;;;0.40;0.40;;;24.50;62.50;;;;;;6192347;28;20097;-69
2021/07/18 14:57:51;;;;;;;0.63;0.63;;;24.50;62.50;;;;;;6170494;28;20081;-69
2021/07/18 15:00:51;;;;;;;0.50;0.50;;;24.50;62.50;;;;;;6210760;28;20029;-69
2021/07/18 15:03:52;;;;;;;0.50;0.50;;;24.50;62.50;;;;;;6206227;28;20070;-69
2021/07/18 15:06:52;;;;;;;0.60;0.60;;;24.50;62.50;;;;;;6182157;28;20030;-69
2021/07/18 15:09:53;;;;;;;0.60;0.50;;;24.50;62.50;;;;;;6188457;28;20027;-69
2021/07/18 15:12:53;;;;;;;0.85;0.70;;;24.50;62.50;;;;;;6169451;28;20147;-68
2021/07/18 15:15:54;;;;;;;0.50;0.50;;;24.50;62.50;;;;;;6211106;28;20077;-69
2021/07/18 15:18:58;;;;;;;0.43;0.43;;;24.50;62.50;;;;;;6201141;28;20113;-69
2021/07/18 15:21:59;;;;;;;0.97;0.50;;;24.50;62.50;;;;;;6185943;28;20023;-70
2021/07/18 15:24:59;;;;;;;0.77;0.60;;;24.50;62.50;;;;;;6197214;28;20030;-69
2021/07/18 15:28:00;;;;;;;0.40;0.40;;;24.50;62.50;;;;;;6193507;28;20066;-70
2021/07/18 15:31:01;;;;;;;0.60;0.50;;;24.50;62.50;;;;;;6204662;28;20034;-69
2021/07/18 15:34:01;;;;;;;0.43;0.40;;;24.50;62.50;;;;;;6181731;28;20041;-69
2021/07/18 15:37:02;;;;;;;0.50;0.50;;;24.50;62.50;;;;;;6205490;28;20048;-70
2021/07/18 15:40:04;;;;;;;0.70;0.70;;;24.50;62.50;;;;;;6204833;28;20397;-69
2021/07/18 15:43:04;;;;;;;0.50;0.50;;;24.50;62.50;;;;;;6200864;28;20052;-70
2021/07/18 15:46:05;;;;;;;0.50;0.50;;;24.50;62.50;;;;;;6215245;28;20021;-70
2021/07/18 15:49:12;;;;;;;0.47;0.47;;;24.50;62.50;;;;;;6198418;28;20037;-70